Time;durP1;ratioP1;P1;durP2;ratioP2;P2;SDS_P1;SDS_P2;PMS_P1;PMS_P2;Temp;Humidity;BMP_temperature;BMP_pressure;BME280_temperature;BME280_humidity;BME280_pressure;Samples;Min_cycle;Max_cycle;Signal;HPM_P1;HPM_P2
2021/12/16 00:09:48;;;;;;;9.63;3.72;;;;;;;12.57;74.56;101604.56;5049703;28;20708;-72
2021/12/16 00:31:49;;;;;;;10.75;3.42;;;;;;;12.40;74.37;101629.81;5083708;28;20106;-72
2021/12/16 00:34:19;;;;;;;12.55;3.60;;;;;;;12.42;74.52;101624.53;5064547;28;20037;-72
2021/12/16 00:36:48;;;;;;;13.55;3.95;;;;;;;12.43;74.42;101635.16;5050500;28;20505;-72
2021/12/16 00:39:22;;;;;;;6.90;3.00;;;;;;;12.43;74.13;101624.56;5061708;28;20040;-72
2021/12/16 00:41:59;;;;;;;11.13;3.00;;;;;;;12.44;74.30;101618.41;5046609;28;20033;-72
2021/12/16 00:45:00;;;;;;;10.52;3.22;;;;;;;12.47;74.05;101618.47;5050354;28;20505;-72
2021/12/16 00:47:31;;;;;;;13.50;3.92;;;;;;;12.47;73.70;101623.75;5050121;28;20409;-72
2021/12/16 00:50:06;;;;;;;9.45;3.10;;;;;;;12.50;73.55;101615.88;5037631;28;20045;-72
2021/12/16 00:55:32;;;;;;;7.93;2.03;;;;;;;12.50;73.61;101623.84;5043120;28;20041;-72
2021/12/16 00:58:01;;;;;;;9.65;4.07;;;;;;;12.50;73.82;101633.53;5050155;28;20504;-72
2021/12/16 01:00:31;;;;;;;6.93;2.65;;;;;;;12.52;73.49;101627.41;5048459;28;20047;-72
2021/12/16 01:03:11;;;;;;;7.43;3.10;;;;;;;12.50;73.42;101626.50;5051091;28;20075;-72
2021/12/16 01:08:41;;;;;;;10.88;3.72;;;;;;;12.49;72.58;101626.44;5057028;28;20561;-72
2021/12/16 01:36:45;;;;;;;10.63;4.03;;;;;;;11.59;79.21;101629.59;5047220;28;20075;-72
2021/12/16 01:50:31;;;;;;;10.85;4.75;;;;;;;11.46;80.02;101635.44;5048602;28;20025;-72
2021/12/16 01:53:14;;;;;;;14.43;5.28;;;;;;;11.45;80.02;101634.53;5048075;28;20497;-72
2021/12/16 01:55:49;;;;;;;14.60;4.82;;;;;;;11.42;80.12;101625.63;5072290;28;20095;-72
2021/12/16 01:58:21;;;;;;;9.75;4.78;;;;;;;11.36;80.15;101625.44;5052148;28;20044;-73
2021/12/16 02:01:11;;;;;;;13.32;5.35;;;;;;;11.32;80.13;101631.53;5049082;28;20581;-72
2021/12/16 02:03:47;;;;;;;17.60;6.45;;;;;;;11.30;80.15;101631.47;5046430;28;20040;-73
2021/12/16 02:06:39;;;;;;;23.80;11.55;;;;;;;11.27;79.85;101633.16;5050666;28;20635;-72
2021/12/16 02:09:19;;;;;;;19.90;7.32;;;;;;;11.31;79.82;101635.00;5044295;28;20084;-73
2021/12/16 02:11:55;;;;;;;12.95;5.10;;;;;;;11.35;79.67;101631.63;5052347;28;20040;-72
2021/12/16 02:36:47;;;;;;;9.50;3.38;;;;;;;11.45;76.96;101638.91;5025362;28;20048;-72
2021/12/16 02:39:19;;;;;;;12.40;4.45;;;;;;;11.47;76.54;101643.41;5059731;28;20052;-71
2021/12/16 02:41:49;;;;;;;9.43;3.72;;;;;;;11.49;75.96;101635.47;5055806;28;20055;-72
2021/12/16 02:44:29;;;;;;;10.80;4.13;;;;;;;11.47;75.23;101627.53;5049640;28;20044;-71
2021/12/16 02:49:47;;;;;;;10.52;3.67;;;;;;;11.53;75.48;101637.38;5046860;28;20041;-72
2021/12/16 02:52:18;;;;;;;11.30;4.03;;;;;;;11.58;75.51;101639.28;5030175;28;20053;-71
2021/12/16 02:54:47;;;;;;;11.45;3.97;;;;;;;11.59;75.09;101642.81;5063829;28;20052;-72
2021/12/16 02:57:16;;;;;;;7.80;3.25;;;;;;;11.61;74.80;101641.13;5046828;28;20043;-71
2021/12/16 02:59:45;;;;;;;7.00;2.90;;;;;;;11.61;74.23;101638.47;5046954;28;20106;-72
2021/12/16 03:02:18;;;;;;;9.70;3.38;;;;;;;11.63;73.91;101647.31;5063669;28;20045;-72
2021/12/16 03:04:50;;;;;;;9.83;3.60;;;;;;;11.64;73.81;101643.81;5047169;28;20049;-73
2021/12/16 03:07:22;;;;;;;14.57;4.15;;;;;;;11.67;73.75;101656.25;5047648;28;20568;-72
2021/12/16 03:12:52;;;;;;;9.73;3.90;;;;;;;11.64;73.26;101649.09;5046274;28;20052;-73
2021/12/16 03:15:35;;;;;;;8.90;3.97;;;;;;;11.65;73.24;101656.19;5048357;28;20174;-72
2021/12/16 03:18:10;;;;;;;12.60;3.55;;;;;;;11.64;72.71;101653.50;5051457;28;20056;-73
2021/12/16 03:20:43;;;;;;;9.98;3.45;;;;;;;11.63;72.60;101660.53;5049948;28;20124;-73
2021/12/16 03:23:31;;;;;;;12.98;3.72;;;;;;;11.61;72.46;101649.06;5051038;28;20512;-73
2021/12/16 03:26:34;;;;;;;10.00;3.60;;;;;;;11.56;71.11;101654.19;5053417;28;20039;-73
2021/12/16 03:29:17;;;;;;;7.18;2.78;;;;;;;11.49;70.99;101643.41;5066491;28;20049;-73
2021/12/16 03:34:58;;;;;;;12.90;3.25;;;;;;;11.40;70.38;101653.78;5048728;28;20060;-74
2021/12/16 03:37:29;;;;;;;10.88;4.05;;;;;;;11.39;70.76;101654.63;5066586;28;20053;-73
2021/12/16 03:40:00;;;;;;;8.55;3.28;;;;;;;11.37;70.07;101662.50;5067439;28;20033;-74
2021/12/16 03:42:33;;;;;;;10.00;3.63;;;;;;;11.37;70.39;101658.97;5051379;28;20044;-74
2021/12/16 03:46:25;;;;;;;14.38;3.25;;;;;;;11.36;70.28;101660.72;5050365;28;20033;-74
2021/12/16 03:48:01;;;;;;;8.20;3.25;;;;;;;11.36;70.39;101654.53;5065979;28;20048;-72
2021/12/16 03:50:30;;;;;;;8.48;3.05;;;;;;;11.36;70.61;101665.09;5051610;28;20049;-74
2021/12/16 03:52:58;;;;;;;10.52;3.85;;;;;;;11.36;70.04;101668.63;5049335;28;20133;-73
2021/12/16 03:55:26;;;;;;;14.57;3.50;;;;;;;11.38;69.98;101666.03;5050780;28;20420;-73
2021/12/16 03:57:56;;;;;;;7.72;3.00;;;;;;;11.35;69.62;101680.09;5049943;28;20045;-73
2021/12/16 04:00:31;;;;;;;9.27;3.28;;;;;;;11.35;69.52;101668.63;5066611;28;20037;-73
2021/12/16 04:03:03;;;;;;;10.30;3.30;;;;;;;11.33;69.43;101665.03;5049661;28;20045;-73
2021/12/16 04:05:39;;;;;;;12.68;3.53;;;;;;;11.30;69.43;101660.53;5049964;28;20095;-73
2021/12/16 04:08:09;;;;;;;9.93;3.03;;;;;;;11.27;69.03;101667.50;5066521;28;20052;-73
2021/12/16 04:10:54;;;;;;;13.10;3.20;;;;;;;11.29;69.20;101658.75;5048937;28;20497;-74
2021/12/16 04:13:27;;;;;;;7.70;2.72;;;;;;;11.29;68.72;101666.69;5049948;28;20045;-73
2021/12/16 04:15:59;;;;;;;8.85;3.05;;;;;;;11.29;68.96;101660.53;5049074;28;20080;-72
2021/12/16 04:18:29;;;;;;;7.80;3.25;;;;;;;11.31;69.00;101672.03;5049269;28;20110;-73
2021/12/16 04:20:57;;;;;;;12.02;4.15;;;;;;;11.35;69.10;101677.44;5050705;28;20071;-73
2021/12/16 04:23:25;;;;;;;9.15;3.30;;;;;;;11.33;68.63;101665.03;5048507;28;20576;-72
2021/12/16 04:25:54;;;;;;;9.73;3.63;;;;;;;11.33;68.66;101660.66;5065748;28;20048;-74
2021/12/16 04:28:25;;;;;;;14.43;5.13;;;;;;;11.31;67.99;101669.38;5049600;28;20081;-72
2021/12/16 04:30:57;;;;;;;11.00;3.55;;;;;;;11.29;68.06;101676.38;5049303;28;20045;-72
2021/12/16 04:33:28;;;;;;;9.45;3.45;;;;;;;11.27;67.95;101663.13;5032944;28;20033;-72
2021/12/16 04:35:56;;;;;;;13.18;3.28;;;;;;;11.26;67.94;101674.53;5048929;28;20094;-72
2021/12/16 04:38:24;;;;;;;18.20;11.70;;;;;;;11.27;68.24;101664.88;5048478;28;20045;-72
2021/12/16 04:40:53;;;;;;;15.18;3.45;;;;;;;11.25;68.34;101666.56;5065878;28;20133;-72
2021/12/16 04:43:33;;;;;;;8.63;3.13;;;;;;;11.22;68.28;101672.69;5065984;28;20033;-72
2021/12/16 04:46:07;;;;;;;13.23;2.78;;;;;;;11.22;68.36;101682.34;5051582;28;20045;-72
2021/12/16 04:48:37;;;;;;;11.73;3.53;;;;;;;11.19;67.51;101678.78;5049528;28;20496;-72
2021/12/16 04:51:08;;;;;;;11.38;3.00;;;;;;;11.18;67.45;101681.38;5049248;28;20128;-72
2021/12/16 04:53:39;;;;;;;9.35;2.90;;;;;;;11.21;68.11;101672.63;5048961;28;20095;-72
2021/12/16 04:56:10;;;;;;;8.90;2.83;;;;;;;11.24;68.17;101692.09;5045258;28;20045;-72
2021/12/16 04:58:53;;;;;;;12.48;2.95;;;;;;;11.22;68.18;101693.81;5047688;28;20052;-72
2021/12/16 05:01:23;;;;;;;7.15;2.83;;;;;;;11.24;68.31;101691.19;5058439;28;20485;-72
2021/12/16 05:03:53;;;;;;;8.40;2.90;;;;;;;11.21;68.46;101693.78;5051937;28;20099;-72
2021/12/16 05:06:21;;;;;;;11.25;4.20;;;;;;;11.19;67.60;101691.09;5066220;28;20116;-72
2021/12/16 05:08:50;;;;;;;7.53;2.47;;;;;;;11.15;67.72;101679.53;5048512;28;20037;-72
2021/12/16 05:11:29;;;;;;;13.38;4.40;;;;;;;11.13;67.31;101694.47;5048849;28;20044;-72
2021/12/16 05:13:58;;;;;;;8.82;3.63;;;;;;;11.10;67.38;101686.44;5048702;28;20041;-72
2021/12/16 05:16:28;;;;;;;10.95;3.10;;;;;;;11.08;67.21;101689.91;5048750;28;20037;-72
2021/12/16 05:18:57;;;;;;;7.78;2.65;;;;;;;11.06;67.12;101684.56;5048233;28;20045;-72
2021/12/16 05:21:42;;;;;;;13.40;3.70;;;;;;;11.10;67.59;101689.06;5048639;28;20124;-71
2021/12/16 05:24:31;;;;;;;11.05;3.22;;;;;;;11.13;68.50;101686.53;5050878;28;20048;-71
2021/12/16 05:27:09;;;;;;;18.45;7.75;;;;;;;11.19;69.01;101694.63;5068071;28;20098;-71
2021/12/16 05:29:38;;;;;;;11.98;3.65;;;;;;;11.25;69.35;101682.44;5068636;28;20044;-71
2021/12/16 05:32:10;;;;;;;9.15;2.70;;;;;;;11.32;69.63;101689.66;5068454;28;20056;-71
2021/12/16 05:34:38;;;;;;;8.82;2.83;;;;;;;11.34;69.71;101690.63;5062826;28;20037;-71
2021/12/16 05:37:07;;;;;;;11.55;3.22;;;;;;;11.39;69.72;101686.34;5046676;28;20044;-72
2021/12/16 05:39:38;;;;;;;9.63;3.40;;;;;;;11.43;70.01;101689.09;5049487;28;20048;-71
2021/12/16 05:42:26;;;;;;;9.45;2.97;;;;;;;11.44;70.25;101696.19;5028914;28;20068;-71
2021/12/16 05:44:54;;;;;;;11.55;3.33;;;;;;;11.44;69.64;101690.91;5036286;28;20049;-71
2021/12/16 05:47:24;;;;;;;10.02;3.60;;;;;;;11.47;69.63;101688.34;5045101;28;20045;-71
2021/12/16 05:49:53;;;;;;;7.32;3.10;;;;;;;11.45;69.46;101679.47;5028347;28;20085;-71
2021/12/16 05:52:21;;;;;;;9.30;3.15;;;;;;;11.43;69.38;101678.53;5063299;28;20041;-71
2021/12/16 05:54:49;;;;;;;8.52;3.20;;;;;;;11.46;69.36;101678.63;5039512;28;20045;-71
2021/12/16 05:57:26;;;;;;;10.18;3.30;;;;;;;11.49;69.48;101685.72;5052874;28;20046;-71
2021/12/16 06:00:01;;;;;;;13.90;3.40;;;;;;;11.53;69.57;101677.94;5043624;28;20044;-71
2021/12/16 06:02:32;;;;;;;8.95;3.42;;;;;;;11.56;69.42;101680.63;5064030;28;20049;-71
2021/12/16 06:05:00;;;;;;;11.43;4.18;;;;;;;11.56;69.45;101687.69;5057104;28;20045;-71
2021/12/16 06:07:28;;;;;;;9.50;3.08;;;;;;;11.54;69.25;101677.09;5044856;28;20570;-71
2021/12/16 06:09:56;;;;;;;9.88;2.88;;;;;;;11.56;69.25;101678.00;5076782;28;20044;-71
2021/12/16 06:12:25;;;;;;;14.23;5.85;;;;;;;11.59;69.26;101690.41;5048412;28;20037;-71
2021/12/16 06:15:11;;;;;;;9.60;2.97;;;;;;;11.61;69.02;101674.59;5047451;28;20060;-71
2021/12/16 06:28:47;;;;;;;8.70;3.00;;;;;;;11.87;67.60;101694.72;5051007;28;20032;-72
2021/12/16 06:31:16;;;;;;;7.28;2.22;;;;;;;11.86;67.68;101692.91;5068431;28;20403;-72
2021/12/16 06:33:46;;;;;;;8.23;4.10;;;;;;;11.90;67.43;101702.72;5065033;28;20040;-72
2021/12/16 06:36:15;;;;;;;10.68;4.68;;;;;;;11.97;66.97;101702.00;5033826;28;20048;-71
2021/12/16 06:38:43;;;;;;;6.78;2.85;;;;;;;11.95;66.70;101704.59;5045745;28;20045;-72
2021/12/16 06:41:38;;;;;;;8.68;3.85;;;;;;;11.89;66.83;101701.81;5056048;28;20475;-71
2021/12/16 06:44:29;;;;;;;6.55;3.33;;;;;;;11.85;66.17;101705.25;5041302;28;20060;-71
2021/12/16 06:47:02;;;;;;;6.03;2.58;;;;;;;11.80;66.31;101706.88;5028998;28;20583;-71
2021/12/16 06:49:33;;;;;;;14.32;7.72;;;;;;;11.82;66.45;101721.03;5043820;28;20045;-71
2021/12/16 06:52:04;;;;;;;9.20;4.30;;;;;;;11.84;66.66;101713.13;5064349;28;20521;-71
2021/12/16 06:54:38;;;;;;;17.00;6.47;;;;;;;11.87;67.05;101714.13;5047475;28;20049;-71
2021/12/16 06:57:19;;;;;;;18.92;9.32;;;;;;;11.94;66.85;101716.06;5052221;28;20123;-71
2021/12/16 06:59:54;;;;;;;11.32;5.32;;;;;;;12.08;66.64;101723.47;5052252;28;20044;-71
2021/12/16 07:02:41;;;;;;;8.10;4.80;;;;;;;12.32;67.32;101724.06;5033526;28;20040;-71
2021/12/16 07:05:13;;;;;;;9.07;6.60;;;;;;;12.62;67.45;101730.06;5052093;28;20040;-71
2021/12/16 07:07:42;;;;;;;7.00;4.18;;;;;;;12.63;66.81;101730.94;5052048;28;20571;-71
2021/12/16 07:10:12;;;;;;;7.38;3.35;;;;;;;12.59;66.29;101721.16;5050621;28;20059;-72
2021/12/16 07:12:46;;;;;;;8.30;4.35;;;;;;;12.52;66.32;101740.41;5051881;28;20083;-72
2021/12/16 07:15:16;;;;;;;7.80;2.72;;;;;;;12.55;66.07;101733.41;5050150;28;20124;-72
2021/12/16 07:17:44;;;;;;;8.38;2.75;;;;;;;12.63;65.64;101742.44;5053238;28;20052;-72
2021/12/16 07:20:17;;;;;;;8.38;2.47;;;;;;;12.74;65.50;101750.63;5048443;28;20075;-72
2021/12/16 07:22:45;;;;;;;8.82;2.88;;;;;;;12.79;65.45;101743.69;5052078;28;20064;-69
2021/12/16 07:25:14;;;;;;;7.10;3.05;;;;;;;12.78;65.34;101755.16;5051751;28;20686;-70
2021/12/16 07:27:43;;;;;;;11.23;3.85;;;;;;;12.77;65.33;101748.06;5052246;28;20669;-69
2021/12/16 07:30:15;;;;;;;8.73;3.67;;;;;;;12.70;64.81;101756.72;5066730;28;20045;-69
2021/12/16 07:32:43;;;;;;;7.40;2.65;;;;;;;12.71;64.44;101754.13;5049915;28;20191;-69
2021/12/16 07:35:20;;;;;;;7.10;2.25;;;;;;;13.03;65.25;101760.13;5049013;28;20044;-70
2021/12/16 07:37:48;;;;;;;9.55;2.70;;;;;;;13.14;64.84;101761.28;5040879;28;20041;-69
2021/12/16 07:40:20;;;;;;;5.50;2.15;;;;;;;13.05;63.76;101760.16;5049151;28;20056;-70
2021/12/16 07:42:59;;;;;;;5.38;1.92;;;;;;;12.95;63.75;101758.16;5049599;28;20049;-72
2021/12/16 07:45:29;;;;;;;6.75;1.88;;;;;;;12.85;64.08;101769.44;5051186;28;20037;-71
2021/12/16 07:47:57;;;;;;;6.68;3.38;;;;;;;12.88;64.53;101769.47;5049150;28;20048;-72
2021/12/16 07:50:27;;;;;;;6.40;1.73;;;;;;;13.12;63.26;101756.78;5050753;28;20048;-71
2021/12/16 07:52:56;;;;;;;5.43;2.17;;;;;;;13.33;63.29;101765.19;5041123;28;20056;-72
2021/12/16 07:55:24;;;;;;;6.10;2.08;;;;;;;13.47;63.34;101757.50;5051336;28;20099;-72
2021/12/16 07:57:52;;;;;;;6.68;2.67;;;;;;;13.56;63.50;101769.22;5050638;28;20033;-71
2021/12/16 08:00:23;;;;;;;6.30;3.38;;;;;;;13.64;63.30;101769.38;5049235;28;20041;-72
2021/12/16 08:02:52;;;;;;;6.72;1.65;;;;;;;13.58;62.52;101763.94;5050897;28;20051;-71
2021/12/16 08:05:25;;;;;;;4.60;2.33;;;;;;;13.63;61.83;101759.63;5050441;28;20109;-71
2021/12/16 08:07:55;;;;;;;4.63;1.88;;;;;;;13.74;61.97;101762.47;5049218;28;20500;-71
2021/12/16 08:10:24;;;;;;;7.65;2.22;;;;;;;13.98;62.18;101770.88;5050690;28;20088;-71
2021/12/16 08:12:53;;;;;;;5.60;1.80;;;;;;;14.05;61.65;101769.22;5050466;28;20501;-71
2021/12/16 08:15:22;;;;;;;5.57;1.67;;;;;;;13.93;61.94;101783.16;5050848;28;20041;-71
2021/12/16 08:17:51;;;;;;;8.57;4.40;;;;;;;13.89;62.00;101778.69;5046089;28;20040;-72
2021/12/16 08:20:19;;;;;;;4.63;2.00;;;;;;;13.93;62.48;101772.53;5044539;28;20102;-72
2021/12/16 08:22:49;;;;;;;10.02;4.07;;;;;;;14.28;62.59;101773.16;5047710;28;20461;-72
2021/12/16 08:25:22;;;;;;;5.65;2.22;;;;;;;14.39;61.46;101766.28;5032857;28;20097;-71
2021/12/16 08:27:52;;;;;;;4.68;1.55;;;;;;;14.34;60.24;101760.00;5044321;28;20045;-71
2021/12/16 08:30:22;;;;;;;7.38;2.40;;;;;;;14.29;60.10;101757.28;5047266;28;20691;-69
2021/12/16 08:32:50;;;;;;;6.78;4.38;;;;;;;14.22;60.00;101758.03;5032135;28;20049;-68
2021/12/16 08:35:18;;;;;;;7.60;2.58;;;;;;;14.43;60.19;101767.25;5028774;28;20107;-68
2021/12/16 08:37:46;;;;;;;5.00;1.95;;;;;;;14.59;58.96;101755.97;5030378;28;20064;-68
2021/12/16 08:40:17;;;;;;;15.40;8.55;;;;;;;14.60;59.45;101760.44;5030403;28;20037;-68
2021/12/16 08:42:47;;;;;;;7.28;3.60;;;;;;;14.82;60.13;101749.25;5041753;28;20074;-68
2021/12/16 08:45:18;;;;;;;7.75;3.00;;;;;;;15.02;59.98;101746.88;5049763;28;20041;-69
2021/12/16 08:47:47;;;;;;;8.32;3.55;;;;;;;15.02;59.17;101739.78;5046500;28;20065;-69
2021/12/16 08:50:18;;;;;;;8.48;3.47;;;;;;;14.96;59.19;101737.03;5035524;28;20136;-68
2021/12/16 08:52:46;;;;;;;7.55;3.17;;;;;;;14.95;58.98;101737.91;5048275;28;20049;-67
2021/12/16 08:55:15;;;;;;;5.30;3.00;;;;;;;14.81;59.04;101738.59;5063160;28;20134;-67
2021/12/16 08:57:44;;;;;;;6.70;3.53;;;;;;;14.80;59.08;101744.78;5053283;28;20037;-68
2021/12/16 09:00:18;;;;;;;10.88;5.97;;;;;;;14.83;58.85;101744.84;5048554;28;20033;-70
2021/12/16 09:02:46;;;;;;;9.27;3.45;;;;;;;14.58;59.50;101748.88;5064774;28;20517;-68
2021/12/16 09:05:14;;;;;;;7.97;3.45;;;;;;;14.33;59.33;101736.94;5035350;28;20037;-69
2021/12/16 09:07:45;;;;;;;6.47;3.53;;;;;;;14.29;59.61;101743.97;5029966;28;20100;-68
2021/12/16 09:10:14;;;;;;;10.95;5.03;;;;;;;14.39;60.05;101741.50;5030057;28;20041;-68
2021/12/16 09:13:00;;;;;;;6.32;3.70;;;;;;;14.56;60.26;101745.31;5028745;28;20513;-69
2021/12/16 09:15:31;;;;;;;8.35;3.42;;;;;;;14.70;60.34;101741.13;5045339;28;20043;-69
2021/12/16 09:17:59;;;;;;;8.23;3.28;;;;;;;14.77;60.33;101734.97;5049022;28;20086;-68
2021/12/16 09:20:27;;;;;;;7.57;2.60;;;;;;;15.02;60.12;101728.25;5047545;28;20094;-69
2021/12/16 09:22:55;;;;;;;5.18;2.00;;;;;;;15.14;60.41;101745.25;5048693;28;20045;-68
2021/12/16 09:25:23;;;;;;;8.35;3.10;;;;;;;14.97;59.94;101741.47;5063507;28;20041;-68
2021/12/16 09:27:52;;;;;;;7.90;2.85;;;;;;;14.81;59.91;101728.84;5048940;28;20066;-68
2021/12/16 09:30:22;;;;;;;5.22;1.80;;;;;;;14.63;59.64;101731.25;5046877;28;20119;-69
2021/12/16 09:32:56;;;;;;;9.70;3.58;;;;;;;14.44;59.65;101739.81;5047914;28;20045;-70
2021/12/16 09:35:24;;;;;;;10.80;2.92;;;;;;;14.31;59.45;101730.72;5039371;28;20541;-69
2021/12/16 09:37:54;;;;;;;5.43;2.40;;;;;;;14.24;59.48;101731.50;5044811;28;20045;-70
2021/12/16 09:40:25;;;;;;;6.82;2.42;;;;;;;14.28;59.09;101725.34;5046974;28;20515;-71
2021/12/16 09:42:54;;;;;;;7.45;2.25;;;;;;;14.33;59.20;101727.22;5031427;28;20036;-72
2021/12/16 09:45:22;;;;;;;4.38;2.38;;;;;;;14.37;59.48;101714.91;5068943;28;20041;-72
2021/12/16 09:47:53;;;;;;;4.13;2.20;;;;;;;14.49;60.18;101714.22;5068917;28;20037;-71
2021/12/16 09:50:24;;;;;;;7.95;2.65;;;;;;;14.84;60.41;101712.03;5067699;28;20527;-71
2021/12/16 09:52:53;;;;;;;8.43;3.20;;;;;;;15.14;60.33;101709.78;5038177;28;20045;-71
2021/12/16 09:55:22;;;;;;;5.65;2.40;;;;;;;14.97;59.31;101706.91;5043068;28;20048;-71
2021/12/16 09:57:51;;;;;;;3.90;2.30;;;;;;;14.82;59.35;101700.50;5047351;28;20037;-72
2021/12/16 10:00:22;;;;;;;8.32;2.47;;;;;;;14.80;59.08;101713.78;5044208;28;20076;-72
2021/12/16 10:02:52;;;;;;;7.47;2.05;;;;;;;14.91;58.95;101713.91;5061211;28;20056;-71
2021/12/16 10:05:21;;;;;;;6.45;2.08;;;;;;;14.90;58.43;101714.81;5046749;28;20560;-70
2021/12/16 10:07:51;;;;;;;6.22;1.83;;;;;;;14.81;58.60;101704.94;5043469;28;20041;-70
2021/12/16 10:10:23;;;;;;;8.38;2.10;;;;;;;14.65;59.06;101705.56;5046712;28;20040;-71
2021/12/16 10:12:52;;;;;;;6.95;2.08;;;;;;;14.65;60.20;101708.22;5048005;28;20044;-70
2021/12/16 10:18:14;;;;;;;8.43;2.10;;;;;;;14.75;60.74;101707.50;5047568;28;20048;-73
2021/12/16 10:20:45;;;;;;;4.68;1.95;;;;;;;14.86;60.97;101710.28;5047428;28;20053;-71
2021/12/16 10:23:16;;;;;;;5.35;2.03;;;;;;;14.95;60.84;101721.06;5046868;28;20660;-70
2021/12/16 10:25:46;;;;;;;4.85;2.00;;;;;;;14.98;60.41;101705.13;5051888;28;20045;-71
2021/12/16 10:28:17;;;;;;;9.15;2.30;;;;;;;14.85;60.44;101701.41;5051379;28;20064;-70
2021/12/16 10:30:50;;;;;;;5.72;2.08;;;;;;;14.77;60.35;101704.88;5053071;28;20522;-70
2021/12/16 10:33:28;;;;;;;9.57;2.43;;;;;;;14.82;60.31;101713.81;5051127;28;20154;-71
2021/12/16 10:36:04;;;;;;;7.88;2.28;;;;;;;14.69;60.47;101704.75;5067855;28;20044;-71
2021/12/16 10:38:36;;;;;;;12.07;3.05;;;;;;;14.64;60.58;101703.78;5053157;28;20116;-71
2021/12/16 10:41:05;;;;;;;9.48;2.03;;;;;;;14.61;60.81;101698.44;5040164;28;20393;-71
2021/12/16 10:43:36;;;;;;;8.00;2.15;;;;;;;14.66;60.65;101699.38;5030777;28;20519;-71
2021/12/16 10:46:08;;;;;;;5.90;2.35;;;;;;;14.66;60.17;101702.03;5034531;28;20470;-71
2021/12/16 10:48:40;;;;;;;7.45;1.73;;;;;;;14.69;60.15;101696.78;5051294;28;20045;-70
2021/12/16 10:51:12;;;;;;;3.92;1.60;;;;;;;14.56;59.64;101705.47;5052462;28;20055;-70
2021/12/16 10:53:55;;;;;;;6.43;1.58;;;;;;;14.64;59.92;101698.47;5052405;28;20126;-70
2021/12/16 10:56:27;;;;;;;6.45;1.85;;;;;;;14.64;59.75;101704.69;5067542;28;20128;-70
2021/12/16 10:58:59;;;;;;;5.70;1.33;;;;;;;14.46;59.23;101708.84;5052790;28;20497;-68
2021/12/16 11:01:41;;;;;;;4.57;1.42;;;;;;;14.40;59.48;101695.47;5068215;28;20045;-68
2021/12/16 11:04:13;;;;;;;6.10;2.15;;;;;;;14.43;59.28;101711.47;5051382;28;20033;-68
2021/12/16 11:06:42;;;;;;;3.70;1.65;;;;;;;14.58;59.58;101709.00;5051522;28;20610;-68
2021/12/16 11:09:39;;;;;;;10.48;2.88;;;;;;;14.67;59.07;101709.16;5051821;28;20033;-69
2021/12/16 11:12:30;;;;;;;5.13;1.35;;;;;;;14.58;58.78;101714.31;5051873;28;20056;-68
2021/12/16 11:15:01;;;;;;;4.90;1.42;;;;;;;14.45;58.84;101717.66;5052233;28;20048;-68
2021/12/16 11:17:34;;;;;;;7.15;1.83;;;;;;;14.44;59.11;101719.44;5052443;28;20090;-68
2021/12/16 11:20:10;;;;;;;7.20;2.00;;;;;;;14.71;59.38;101709.22;5050887;28;20388;-68
2021/12/16 11:22:39;;;;;;;7.78;2.22;;;;;;;15.03;59.65;101704.31;5052293;28;20520;-68
2021/12/16 11:25:20;;;;;;;4.82;1.50;;;;;;;15.22;59.05;101701.91;5051176;28;20063;-67
2021/12/16 11:27:50;;;;;;;6.63;2.13;;;;;;;15.32;58.50;101682.50;5066253;28;20053;-68
2021/12/16 11:30:44;;;;;;;5.72;1.67;;;;;;;15.22;58.15;101705.44;5048651;28;20152;-68
2021/12/16 11:33:15;;;;;;;6.15;2.03;;;;;;;14.97;58.03;101711.31;5042988;28;20111;-67
2021/12/16 11:35:51;;;;;;;5.07;1.85;;;;;;;14.82;57.53;101709.38;5042302;28;20136;-68
2021/12/16 11:38:24;;;;;;;6.13;1.77;;;;;;;14.70;57.70;101719.84;5048120;28;20041;-68
2021/12/16 11:41:14;;;;;;;8.63;1.53;;;;;;;14.68;57.47;101711.84;5049823;28;20045;-67
2021/12/16 11:43:50;;;;;;;8.25;1.67;;;;;;;14.71;57.36;101705.66;5081133;28;20041;-68
2021/12/16 11:46:23;;;;;;;3.40;1.25;;;;;;;14.84;57.34;101704.94;5066779;28;20047;-68
2021/12/16 11:48:54;;;;;;;4.90;1.40;;;;;;;14.83;57.37;101705.84;5070966;28;20432;-68
2021/12/16 11:51:28;;;;;;;4.15;1.17;;;;;;;14.77;57.48;101712.84;5070895;28;20123;-68
2021/12/16 11:54:00;;;;;;;8.15;1.48;;;;;;;14.70;57.35;101711.88;5068221;28;20401;-68
2021/12/16 11:56:39;;;;;;;6.20;1.15;;;;;;;14.69;57.77;101703.00;5060000;28;20037;-68
2021/12/16 11:59:08;;;;;;;2.55;1.20;;;;;;;14.62;57.13;101702.88;5071379;28;20037;-70
2021/12/16 12:01:38;;;;;;;6.15;1.95;;;;;;;14.66;57.33;101702.03;5070100;28;20508;-70
2021/12/16 12:04:10;;;;;;;3.92;1.52;;;;;;;14.64;57.05;101703.78;5071223;28;20044;-68
2021/12/16 12:06:40;;;;;;;6.45;1.38;;;;;;;14.67;56.91;101701.19;5070751;28;20048;-67
2021/12/16 12:09:10;;;;;;;3.72;1.42;;;;;;;14.61;56.78;101711.72;5071681;28;20106;-68
2021/12/16 12:11:43;;;;;;;7.82;2.00;;;;;;;14.49;57.08;101699.16;5070077;28;20067;-68
2021/12/16 12:14:13;;;;;;;5.57;1.60;;;;;;;14.42;56.59;101712.34;5066235;28;20037;-68
2021/12/16 12:16:43;;;;;;;3.65;1.98;;;;;;;14.35;57.14;101703.34;5069304;28;20048;-69
2021/12/16 12:19:15;;;;;;;5.35;1.60;;;;;;;14.43;57.33;101706.16;5069502;28;20037;-68
2021/12/16 12:21:48;;;;;;;16.75;2.45;;;;;;;14.51;57.19;101709.78;5070699;28;20040;-68
2021/12/16 12:24:19;;;;;;;5.75;1.75;;;;;;;14.60;57.15;101705.53;5069870;28;20078;-68
2021/12/16 12:26:52;;;;;;;5.45;1.33;;;;;;;14.61;56.90;101696.69;5070040;28;20136;-68
2021/12/16 12:29:23;;;;;;;7.13;1.35;;;;;;;14.55;56.88;101691.28;5069289;28;20174;-67
2021/12/16 12:31:53;;;;;;;8.48;2.88;;;;;;;14.44;56.78;101689.34;5070843;28;20049;-67
2021/12/16 12:34:22;;;;;;;3.75;1.60;;;;;;;14.29;57.26;101689.97;5070801;28;20480;-67
2021/12/16 12:36:54;;;;;;;5.18;1.58;;;;;;;14.24;57.38;101692.53;5069560;28;20048;-68
2021/12/16 12:39:25;;;;;;;7.63;2.40;;;;;;;14.24;57.69;101702.28;5070774;28;20040;-68
2021/12/16 12:41:54;;;;;;;11.23;2.80;;;;;;;14.21;57.68;101700.47;5069210;28;20068;-70
2021/12/16 12:44:22;;;;;;;3.95;1.70;;;;;;;14.14;57.75;101695.03;5070467;28;20045;-71
2021/12/16 12:46:51;;;;;;;5.72;2.60;;;;;;;14.08;57.60;101694.94;5084818;28;20048;-70
2021/12/16 12:49:25;;;;;;;7.30;2.42;;;;;;;14.02;57.72;101694.84;5068353;28;20032;-71
2021/12/16 12:52:05;;;;;;;6.03;2.28;;;;;;;14.00;57.94;101692.16;5068380;28;20062;-70
2021/12/16 12:54:33;;;;;;;4.90;1.27;;;;;;;13.95;57.96;101701.81;5070307;28;20064;-70
2021/12/16 12:57:18;;;;;;;4.65;1.83;;;;;;;13.92;57.62;101697.31;5069207;28;20460;-70
2021/12/16 12:59:46;;;;;;;4.95;1.98;;;;;;;13.91;57.79;101698.19;5068555;28;20045;-70
2021/12/16 13:02:17;;;;;;;4.15;1.70;;;;;;;13.87;57.63;101699.00;5068446;28;20045;-70
2021/12/16 13:04:48;;;;;;;5.32;2.63;;;;;;;13.90;57.91;101700.84;5052710;28;20044;-71
2021/12/16 13:07:18;;;;;;;5.07;1.00;;;;;;;13.89;57.60;101696.41;5036443;28;20045;-71
2021/12/16 13:09:48;;;;;;;5.80;1.33;;;;;;;13.92;57.67;101699.97;5075100;28;20041;-71
2021/12/16 13:12:36;;;;;;;5.13;1.35;;;;;;;13.97;57.66;101694.78;5048315;28;20543;-70
2021/12/16 13:15:24;;;;;;;5.00;1.50;;;;;;;13.93;57.66;101701.78;5049523;28;20129;-71
2021/12/16 13:23:56;;;;;;;6.65;2.97;;;;;;;13.93;58.21;101693.81;5045897;28;20153;-70
2021/12/16 13:26:49;;;;;;;5.00;2.10;;;;;;;13.94;58.16;101689.41;5063623;28;20374;-68
2021/12/16 13:29:33;;;;;;;3.95;1.58;;;;;;;13.92;58.28;101691.13;5048624;28;20709;-70
2021/12/16 13:32:12;;;;;;;8.45;2.63;;;;;;;13.96;58.19;101685.00;5050171;28;20052;-70
2021/12/16 13:34:53;;;;;;;5.03;2.15;;;;;;;14.04;58.09;101687.81;5044456;28;20041;-70
2021/12/16 13:37:24;;;;;;;4.95;2.25;;;;;;;14.05;58.25;101685.16;5048345;28;20507;-70
2021/12/16 13:39:58;;;;;;;8.10;2.38;;;;;;;14.08;58.65;101679.91;5029519;28;20046;-70
2021/12/16 13:42:27;;;;;;;5.78;2.40;;;;;;;14.08;58.68;101692.28;5052408;28;20033;-72
2021/12/16 13:45:03;;;;;;;5.10;2.53;;;;;;;14.01;58.82;101685.97;5028610;28;20052;-71
2021/12/16 14:02:51;;;;;;;4.20;2.70;;;;;;;13.43;62.92;101700.88;5027218;28;20042;-70
2021/12/16 14:05:27;;;;;;;8.60;3.40;;;;;;;13.33;63.53;101698.91;5028246;28;20041;-71
2021/12/16 14:07:58;;;;;;;6.00;3.50;;;;;;;13.28;63.68;101697.03;5033809;28;20048;-72